Time;durP1;ratioP1;P1;durP2;ratioP2;P2;SDS_P1;SDS_P2;PMS_P1;PMS_P2;Temp;Humidity;BMP_temperature;BMP_pressure;BME280_temperature;BME280_humidity;BME280_pressure;Samples;Min_cycle;Max_cycle;Signal;HPM_P1;HPM_P2
2022/06/12 00:01:07;;;;;;;11.95;10.13;;;;;;;20.18;100.00;99681.91;5015259;28;20200;-70
2022/06/12 00:03:34;;;;;;;13.65;9.73;;;;;;;20.23;100.00;99695.75;5032726;28;20208;-70
2022/06/12 00:06:03;;;;;;;12.40;10.23;;;;;;;20.19;100.00;99694.13;5031650;28;20586;-70
2022/06/12 00:08:32;;;;;;;14.88;10.43;;;;;;;20.30;100.00;99690.38;5007167;28;20196;-71
2022/06/12 00:11:01;;;;;;;13.95;11.20;;;;;;;19.85;100.00;99625.00;4997470;28;20232;-70
2022/06/12 00:13:32;;;;;;;13.43;11.30;;;;;;;20.43;100.00;99696.97;4997496;28;20232;-70
2022/06/12 00:16:00;;;;;;;15.40;11.57;;;;;;;20.44;100.00;99710.06;5032496;28;20216;-70
2022/06/12 00:18:27;;;;;;;14.40;11.68;;;;;;;20.48;100.00;99711.69;5031989;28;20196;-70
2022/06/12 00:23:35;;;;;;;20.65;12.02;;;;;;;20.18;100.00;99683.66;5015324;28;20200;-71
2022/06/12 00:26:03;;;;;;;16.98;12.18;;;;;;;19.96;100.00;99651.84;5031990;28;20696;-71
2022/06/12 00:28:31;;;;;;;17.25;13.00;;;;;;;20.42;100.00;99716.31;5013186;28;20192;-71
2022/06/12 00:30:58;;;;;;;19.25;13.35;;;;;;;20.27;100.00;99702.69;5031860;28;20228;-71
2022/06/12 00:33:25;;;;;;;19.17;14.20;;;;;;;20.31;100.00;99702.59;5031690;28;20199;-71
2022/06/12 00:35:51;;;;;;;22.08;15.13;;;;;;;20.05;100.00;99654.19;5031414;28;20196;-71
2022/06/12 00:38:18;;;;;;;21.52;16.65;;;;;;;20.16;100.00;99673.16;5030582;28;20231;-71
2022/06/12 00:40:45;;;;;;;22.73;17.17;;;;;;;20.20;100.00;99674.78;5022708;28;20208;-71
2022/06/12 00:43:14;;;;;;;22.30;17.77;;;;;;;20.14;100.00;99664.47;5031886;28;20626;-71
2022/06/12 00:45:47;;;;;;;30.50;17.73;;;;;;;20.30;100.00;99687.72;5031928;28;20298;-71
2022/06/12 00:48:18;;;;;;;21.98;16.42;;;;;;;20.19;100.00;99693.28;5030950;28;20284;-71
2022/06/12 00:50:51;;;;;;;26.83;18.33;;;;;;;20.27;100.00;99697.44;5031443;28;20219;-71
2022/06/12 00:53:23;;;;;;;23.90;17.35;;;;;;;20.19;100.00;99699.38;5031437;28;20204;-71
2022/06/12 00:55:57;;;;;;;21.52;16.63;;;;;;;19.96;100.00;99658.88;4997942;28;20800;-71
2022/06/12 00:58:28;;;;;;;19.15;14.10;;;;;;;19.96;100.00;99651.84;5031100;28;20273;-71
2022/06/12 01:00:57;;;;;;;16.27;12.77;;;;;;;19.77;100.00;99653.28;5031602;28;20691;-70
2022/06/12 01:03:25;;;;;;;13.35;10.45;;;;;;;19.64;100.00;99620.38;5031373;28;20208;-71
2022/06/12 01:08:37;;;;;;;13.50;9.75;;;;;;;20.12;100.00;99684.69;5000971;28;20207;-70
2022/06/12 01:11:08;;;;;;;9.45;8.55;;;;;;;20.18;100.00;99681.03;5031415;28;20270;-71
2022/06/12 01:13:40;;;;;;;9.15;8.25;;;;;;;20.11;100.00;99669.81;5031333;28;20235;-70
2022/06/12 01:16:13;;;;;;;14.10;8.40;;;;;;;20.32;100.00;99688.53;5031500;28;20660;-70
2022/06/12 01:18:46;;;;;;;9.35;8.25;;;;;;;20.46;100.00;99688.97;5030446;28;20200;-71
2022/06/12 01:21:39;;;;;;;9.70;8.80;;;;;;;20.39;100.00;99685.66;5030261;28;20247;-70
2022/06/12 01:24:18;;;;;;;9.88;8.85;;;;;;;20.35;100.00;99673.50;4970292;28;20260;-71
2022/06/12 01:27:15;;;;;;;11.75;9.23;;;;;;;20.20;100.00;99674.78;4967330;28;20198;-71
2022/06/12 01:29:54;;;;;;;12.38;9.50;;;;;;;20.26;100.00;99685.13;4944248;29;20225;-71
2022/06/12 01:32:30;;;;;;;10.52;9.52;;;;;;;19.96;100.00;99622.03;4956763;28;20213;-71
2022/06/12 01:35:05;;;;;;;11.75;9.30;;;;;;;20.17;100.00;99669.63;4970057;28;20202;-71
2022/06/12 01:37:41;;;;;;;11.05;10.05;;;;;;;19.84;100.00;99640.81;4968092;28;20202;-70
2022/06/12 01:40:16;;;;;;;10.60;9.48;;;;;;;19.98;100.00;99657.91;4956047;28;20206;-71
2022/06/12 01:42:51;;;;;;;11.80;9.85;;;;;;;20.13;100.00;99662.72;4956100;28;20764;-70
2022/06/12 01:45:35;;;;;;;10.85;9.75;;;;;;;20.07;100.00;99662.06;4969929;28;20201;-70
2022/06/12 01:48:11;;;;;;;10.00;9.13;;;;;;;19.88;100.00;99624.91;4961692;28;20648;-70
2022/06/12 01:50:45;;;;;;;10.57;9.57;;;;;;;20.01;100.00;99660.47;4968649;28;20233;-70
2022/06/12 01:53:16;;;;;;;10.02;9.02;;;;;;;20.05;100.00;99667.34;4969914;28;20273;-70
2022/06/12 01:55:47;;;;;;;9.88;8.93;;;;;;;19.93;100.00;99646.69;4967519;28;20206;-70
2022/06/12 01:58:23;;;;;;;10.25;9.30;;;;;;;19.93;100.00;99615.09;4950639;28;20202;-71
2022/06/12 02:00:58;;;;;;;12.05;10.10;;;;;;;20.34;100.00;99681.44;4970123;28;20216;-71
2022/06/12 02:03:30;;;;;;;10.07;8.55;;;;;;;20.17;100.00;99679.28;5022620;28;20265;-71
2022/06/12 02:06:03;;;;;;;10.35;9.23;;;;;;;20.09;100.00;99671.63;5030619;28;20197;-71
2022/06/12 02:08:37;;;;;;;10.32;9.10;;;;;;;20.15;100.00;99665.34;5030086;28;20197;-70
2022/06/12 02:13:57;;;;;;;9.98;8.90;;;;;;;19.73;100.00;99612.19;5030457;28;20230;-71
2022/06/12 02:16:31;;;;;;;9.95;8.98;;;;;;;20.02;100.00;99653.44;5031139;28;20203;-71
2022/06/12 02:19:03;;;;;;;10.13;8.88;;;;;;;20.08;100.00;99659.38;5030421;28;20656;-70
2022/06/12 02:21:37;;;;;;;10.13;9.23;;;;;;;20.11;100.00;99659.31;5030665;28;20525;-71
2022/06/12 02:24:10;;;;;;;11.85;9.52;;;;;;;20.04;100.00;99652.50;5030351;28;20208;-71
2022/06/12 02:26:43;;;;;;;10.70;9.68;;;;;;;20.02;100.00;99642.91;5030502;28;20208;-71
2022/06/12 02:29:16;;;;;;;11.75;10.52;;;;;;;20.03;100.00;99645.50;5030229;28;20192;-71
2022/06/12 02:31:47;;;;;;;11.30;10.20;;;;;;;20.26;100.00;99658.81;5002027;28;20232;-70
2022/06/12 02:34:19;;;;;;;11.18;10.07;;;;;;;20.41;100.00;99662.75;5014560;28;20600;-71
2022/06/12 02:36:50;;;;;;;11.38;9.75;;;;;;;20.30;100.00;99642.97;5014711;28;20701;-71
2022/06/12 02:39:22;;;;;;;10.90;9.82;;;;;;;20.42;100.00;99668.91;5012829;28;20224;-71
2022/06/12 02:41:51;;;;;;;11.60;10.38;;;;;;;20.30;100.00;99662.22;5014648;28;20258;-71
2022/06/12 02:44:24;;;;;;;12.20;10.90;;;;;;;20.26;100.00;99653.53;5014346;28;20665;-72
2022/06/12 02:46:59;;;;;;;12.20;10.95;;;;;;;20.24;100.00;99655.38;5020068;28;20206;-71
2022/06/12 02:49:26;;;;;;;13.32;11.93;;;;;;;20.02;100.00;99659.56;5033697;28;20841;-71
2022/06/12 02:51:59;;;;;;;15.63;12.75;;;;;;;20.13;100.00;99664.50;5033909;28;20631;-71
2022/06/12 02:54:34;;;;;;;14.48;12.60;;;;;;;20.15;100.00;99665.34;5033870;28;20327;-71
2022/06/12 02:57:11;;;;;;;13.63;12.15;;;;;;;19.92;100.00;99638.81;5034244;28;20195;-71
2022/06/12 02:59:52;;;;;;;12.50;11.25;;;;;;;20.05;100.00;99659.47;5033326;28;20200;-71
2022/06/12 03:02:30;;;;;;;14.98;12.30;;;;;;;20.00;100.00;99650.84;5033787;28;20204;-72
2022/06/12 03:05:02;;;;;;;13.20;11.50;;;;;;;20.02;100.00;99654.28;5033832;28;20210;-71
2022/06/12 03:07:29;;;;;;;14.88;12.77;;;;;;;20.00;100.00;99666.66;4994811;28;20698;-71
2022/06/12 03:09:58;;;;;;;14.57;12.90;;;;;;;20.14;100.00;99668.88;5024827;28;20207;-71
2022/06/12 03:12:28;;;;;;;16.45;12.73;;;;;;;20.00;100.00;99648.22;5033879;28;20200;-73
2022/06/12 03:14:55;;;;;;;14.68;13.18;;;;;;;20.04;100.00;99656.88;5033363;28;20242;-71
2022/06/12 03:17:23;;;;;;;14.38;12.90;;;;;;;20.13;100.00;99644.31;5033733;28;20215;-71
2022/06/12 03:19:54;;;;;;;14.95;13.38;;;;;;;20.19;100.00;99648.53;5033170;28;20196;-71
2022/06/12 03:22:30;;;;;;;18.15;14.32;;;;;;;20.27;100.00;99662.28;5033428;28;20585;-71
2022/06/12 03:25:08;;;;;;;15.52;13.30;;;;;;;20.14;100.00;99658.34;5033184;28;20199;-71
2022/06/12 03:27:53;;;;;;;16.85;13.63;;;;;;;20.18;100.00;99660.84;5033002;28;20214;-72
2022/06/12 03:30:26;;;;;;;18.85;13.65;;;;;;;20.14;100.00;99632.00;5000473;28;20230;-71
2022/06/12 03:33:02;;;;;;;16.00;13.15;;;;;;;20.30;100.00;99653.50;5033016;28;20192;-72
2022/06/12 03:35:52;;;;;;;16.40;13.15;;;;;;;20.24;100.00;99644.84;5032957;28;20623;-71
2022/06/12 03:38:25;;;;;;;17.75;13.30;;;;;;;20.21;100.00;99639.66;5032818;28;20196;-71
2022/06/12 03:41:02;;;;;;;15.18;13.57;;;;;;;20.42;100.00;99663.63;5032786;28;20197;-72
2022/06/12 03:43:36;;;;;;;18.63;13.00;;;;;;;20.49;100.00;99668.66;4995573;28;20631;-72
2022/06/12 03:46:13;;;;;;;14.57;13.05;;;;;;;20.49;100.00;99675.69;5033038;28;20597;-71
2022/06/12 03:48:48;;;;;;;15.63;13.00;;;;;;;20.61;100.00;99684.09;4997449;28;20205;-71
2022/06/12 03:51:20;;;;;;;18.02;12.65;;;;;;;20.54;100.00;99673.78;5024242;28;20643;-71
2022/06/12 03:53:54;;;;;;;13.25;11.95;;;;;;;20.61;100.00;99664.78;5013968;28;20203;-71
2022/06/12 03:59:16;;;;;;;18.15;11.35;;;;;;;20.87;100.00;99688.47;5020036;28;20243;-71
2022/06/12 04:01:45;;;;;;;12.93;11.05;;;;;;;20.62;100.00;99646.25;5032381;28;20262;-72
2022/06/12 04:04:16;;;;;;;12.55;11.35;;;;;;;20.66;100.00;99649.66;5031570;28;20211;-71
2022/06/12 04:06:45;;;;;;;12.40;11.02;;;;;;;20.58;100.00;99660.44;5032159;28;20204;-71
2022/06/12 04:09:16;;;;;;;14.40;11.43;;;;;;;20.74;100.00;99680.13;5032361;28;20196;-71
2022/06/12 04:11:49;;;;;;;13.23;11.55;;;;;;;20.68;100.00;99679.47;5032152;28;20227;-71
2022/06/12 04:14:20;;;;;;;13.65;12.02;;;;;;;20.74;100.00;99679.25;5032818;28;20231;-71
2022/06/12 04:16:50;;;;;;;13.73;10.80;;;;;;;20.69;100.00;99682.03;5032268;28;20204;-71
2022/06/12 04:19:21;;;;;;;13.10;11.15;;;;;;;20.63;100.00;99662.94;5032440;28;20215;-72
2022/06/12 04:21:59;;;;;;;12.77;11.48;;;;;;;20.68;100.00;99680.34;5032552;28;20207;-72
2022/06/12 04:24:31;;;;;;;14.70;11.35;;;;;;;20.74;100.00;99680.13;5013468;28;20196;-75
2022/06/12 04:27:04;;;;;;;12.45;11.15;;;;;;;20.72;100.00;99652.13;4996785;28;20209;-72
2022/06/12 04:29:33;;;;;;;12.80;10.48;;;;;;;20.98;100.00;99661.75;5019198;28;20652;-71
2022/06/12 04:32:04;;;;;;;10.73;9.75;;;;;;;21.04;100.00;99687.94;5031808;28;20232;-71
2022/06/12 04:34:36;;;;;;;10.75;9.55;;;;;;;21.08;100.00;99687.75;5031522;28;20196;-71
2022/06/12 04:37:11;;;;;;;14.05;10.32;;;;;;;21.14;100.00;99677.06;5032303;28;20287;-71
2022/06/12 04:39:37;;;;;;;10.40;8.93;;;;;;;20.98;100.00;99674.94;5031975;28;20218;-71
2022/06/12 04:42:06;;;;;;;9.73;8.82;;;;;;;21.41;100.00;99701.59;5032106;28;20212;-71
2022/06/12 04:44:34;;;;;;;10.45;9.07;;;;;;;21.15;100.00;99684.03;5031747;28;20196;-71
2022/06/12 04:47:05;;;;;;;11.00;9.18;;;;;;;21.38;100.00;99698.19;5012389;28;20227;-71
2022/06/12 04:49:36;;;;;;;10.63;9.52;;;;;;;21.44;100.00;99700.66;5012381;28;20212;-71
2022/06/12 04:52:06;;;;;;;10.93;8.70;;;;;;;21.21;100.00;99635.50;5011942;28;20739;-70
2022/06/12 04:54:34;;;;;;;10.15;9.25;;;;;;;21.29;100.00;99669.53;5017246;28;20200;-70
2022/06/12 04:57:00;;;;;;;9.88;8.98;;;;;;;21.47;100.00;99692.63;5012142;28;20712;-70
2022/06/12 04:59:28;;;;;;;10.20;9.00;;;;;;;21.73;100.00;99714.50;5019161;28;20290;-73
2022/06/12 05:01:55;;;;;;;9.18;8.27;;;;;;;21.54;100.00;99680.94;5030491;28;20196;-70
2022/06/12 05:04:24;;;;;;;10.07;8.93;;;;;;;21.69;100.00;99706.75;5030939;28;20633;-70
2022/06/12 05:06:53;;;;;;;9.43;8.27;;;;;;;21.56;100.00;99697.56;5041978;28;20204;-70
2022/06/12 05:09:22;;;;;;;9.15;8.23;;;;;;;21.74;100.00;99724.16;5044273;28;20204;-70
2022/06/12 05:11:49;;;;;;;8.13;7.32;;;;;;;21.70;100.00;99734.84;5049189;28;20230;-71
2022/06/12 05:14:16;;;;;;;9.70;7.55;;;;;;;21.71;100.00;99720.75;5042595;28;20235;-66
2022/06/12 05:16:47;;;;;;;7.97;7.18;;;;;;;21.42;100.00;99697.19;5039201;28;20203;-72
2022/06/12 05:19:17;;;;;;;8.52;7.63;;;;;;;21.76;100.00;99724.06;5046408;28;20211;-70
2022/06/12 05:21:44;;;;;;;9.02;8.23;;;;;;;22.12;100.00;99738.59;5042746;28;20212;-72
2022/06/12 05:24:13;;;;;;;9.18;7.30;;;;;;;22.18;100.00;99725.19;5023836;28;20215;-71
2022/06/12 05:26:42;;;;;;;8.27;7.47;;;;;;;21.92;100.00;99743.75;5029872;28;20257;-70
2022/06/12 05:29:12;;;;;;;11.02;7.32;;;;;;;21.71;100.00;99741.88;5030936;28;20207;-71
2022/06/12 05:31:39;;;;;;;9.88;8.30;;;;;;;21.79;100.00;99745.09;5031117;28;20219;-71
2022/06/12 05:34:06;;;;;;;8.75;7.90;;;;;;;21.49;100.00;99725.06;5035398;28;20207;-72
2022/06/12 05:36:34;;;;;;;9.18;8.20;;;;;;;21.30;100.00;99713.44;5044559;28;20199;-73
2022/06/12 05:39:00;;;;;;;10.73;8.52;;;;;;;21.37;100.00;99720.25;5042303;28;20199;-72
2022/06/12 05:41:29;;;;;;;9.98;8.95;;;;;;;21.34;100.00;99725.59;5021949;28;20204;-72
2022/06/12 05:43:55;;;;;;;11.30;8.90;;;;;;;21.57;100.00;99728.31;5030753;28;20208;-73
2022/06/12 05:46:22;;;;;;;11.80;9.15;;;;;;;21.32;100.00;99723.03;5030723;28;20672;-72
2022/06/12 05:48:49;;;;;;;11.10;8.93;;;;;;;21.59;100.00;99722.06;5030345;28;20577;-72
2022/06/12 05:51:18;;;;;;;11.35;8.68;;;;;;;21.83;100.00;99720.28;5030970;28;20223;-71
2022/06/12 05:53:45;;;;;;;9.65;8.75;;;;;;;21.86;100.00;99725.50;5030584;28;20218;-71
2022/06/12 05:56:15;;;;;;;9.00;8.10;;;;;;;21.90;100.00;99735.06;5030857;28;20204;-72
2022/06/12 05:58:44;;;;;;;10.93;7.82;;;;;;;22.11;100.00;99757.16;5030741;28;20571;-73
2022/06/12 06:01:14;;;;;;;7.32;6.53;;;;;;;21.82;100.00;99745.00;5030895;28;20219;-72
2022/06/12 06:03:42;;;;;;;8.00;7.25;;;;;;;21.65;100.00;99726.25;5030880;28;20219;-72
2022/06/12 06:06:10;;;;;;;8.40;7.60;;;;;;;21.89;100.00;99735.94;5031138;28;20208;-72
2022/06/12 06:08:37;;;;;;;8.75;7.50;;;;;;;21.84;100.00;99708.81;5035038;28;20207;-73
2022/06/12 06:11:06;;;;;;;9.93;7.90;;;;;;;22.34;100.00;99751.84;5030946;28;20742;-72
2022/06/12 06:13:34;;;;;;;8.98;7.93;;;;;;;22.37;100.00;99759.66;5046546;28;20235;-72
2022/06/12 06:16:03;;;;;;;8.15;7.30;;;;;;;22.41;100.00;99741.91;5037047;28;20204;-72
2022/06/12 06:18:30;;;;;;;8.45;7.65;;;;;;;22.61;100.00;99765.81;5034912;28;20200;-70
2022/06/12 06:20:57;;;;;;;9.35;7.00;;;;;;;22.26;100.00;99771.56;5047482;28;20199;-71
2022/06/12 06:23:23;;;;;;;8.10;7.10;;;;;;;21.96;100.00;99742.75;5039081;28;20200;-72
2022/06/12 06:25:50;;;;;;;11.00;8.10;;;;;;;22.20;100.00;99760.31;5034808;28;20672;-72
2022/06/12 06:28:17;;;;;;;8.77;7.60;;;;;;;22.28;100.00;99738.03;5046671;28;20223;-73
2022/06/12 06:30:45;;;;;;;8.88;7.78;;;;;;;22.28;100.00;99753.88;5034020;28;20192;-71
2022/06/12 06:33:13;;;;;;;8.13;6.40;;;;;;;22.57;100.00;99757.13;5034487;28;20292;-68
2022/06/12 06:35:40;;;;;;;10.85;8.20;;;;;;;22.32;100.00;99756.34;5015942;28;20258;-70
2022/06/12 06:38:07;;;;;;;7.35;6.72;;;;;;;22.59;100.00;99770.28;5033572;28;20204;-71
2022/06/12 06:40:36;;;;;;;8.48;7.50;;;;;;;22.63;100.00;99769.22;5033212;28;20196;-67
2022/06/12 06:43:02;;;;;;;8.68;7.55;;;;;;;22.76;100.00;99778.44;5034010;28;20208;-71
2022/06/12 06:48:15;;;;;;;8.70;7.40;;;;;;;22.78;100.00;99773.97;5033833;28;20219;-69
2022/06/12 06:50:43;;;;;;;8.73;8.02;;;;;;;22.90;100.00;99760.22;5033778;28;20196;-72
2022/06/12 06:53:10;;;;;;;8.70;7.63;;;;;;;23.21;100.00;99771.31;5033638;28;20231;-72
2022/06/12 06:55:37;;;;;;;10.75;7.65;;;;;;;23.25;100.00;99787.03;5033733;28;20669;-72
2022/06/12 06:58:08;;;;;;;11.52;7.25;;;;;;;23.68;100.00;99784.34;5033767;28;20232;-70
2022/06/12 07:00:36;;;;;;;9.95;6.45;;;;;;;23.78;100.00;99804.19;5033035;28;20212;-75
2022/06/12 07:03:03;;;;;;;6.90;6.30;;;;;;;23.66;100.00;99815.28;5033606;28;20680;-69
2022/06/12 07:05:32;;;;;;;7.03;6.43;;;;;;;23.55;100.00;99760.16;5033437;28;20212;-68
2022/06/12 07:08:00;;;;;;;117.75;53.67;;;;;;;24.07;100.00;99803.78;5033454;28;20216;-67
2022/06/12 07:10:29;;;;;;;7.25;6.60;;;;;;;23.84;100.00;99793.31;5033134;28;20286;-71
2022/06/12 07:12:56;;;;;;;5.82;5.38;;;;;;;23.73;100.00;99811.47;5034478;28;20235;-69
2022/06/12 07:15:24;;;;;;;6.70;5.95;;;;;;;24.36;100.00;99807.81;5037332;28;20231;-69
2022/06/12 07:17:53;;;;;;;8.05;5.35;;;;;;;24.28;100.00;99801.97;5035354;28;20203;-69
2022/06/12 07:20:23;;;;;;;6.75;6.15;;;;;;;24.45;100.00;99811.81;5029210;28;20779;-66
2022/06/12 07:22:52;;;;;;;6.55;5.72;;;;;;;24.67;100.00;99824.00;5030739;28;20287;-66
2022/06/12 07:25:20;;;;;;;6.30;5.72;;;;;;;23.96;100.00;99789.28;5035514;28;20222;-66
2022/06/12 07:27:48;;;;;;;7.20;5.90;;;;;;;24.12;100.00;99822.97;4997468;28;20219;-68
2022/06/12 07:30:18;;;;;;;5.93;5.43;;;;;;;24.07;100.00;99824.97;5029032;28;20687;-68
2022/06/12 07:32:45;;;;;;;8.05;5.53;;;;;;;23.75;100.00;99820.22;5024941;28;20223;-68
2022/06/12 07:35:12;;;;;;;6.07;5.55;;;;;;;23.97;100.00;99820.16;5034122;28;20208;-69
2022/06/12 07:37:40;;;;;;;6.07;5.57;;;;;;;23.90;100.00;99808.94;5032124;28;20211;-68
2022/06/12 07:40:15;;;;;;;6.60;6.00;;;;;;;24.26;100.00;99832.13;5028213;28;20196;-69
2022/06/12 07:42:42;;;;;;;6.85;5.80;;;;;;;24.23;100.00;99833.13;5004702;28;20627;-70
2022/06/12 07:45:10;;;;;;;9.98;6.00;;;;;;;23.86;100.00;99828.56;5026486;28;20215;-69
2022/06/12 07:47:37;;;;;;;7.20;6.38;;;;;;;24.20;100.00;99830.59;5028533;28;20208;-69
2022/06/12 07:50:04;;;;;;;9.25;6.20;;;;;;;24.21;100.00;99810.28;5028754;28;20207;-69
2022/06/12 07:52:32;;;;;;;32.10;17.88;;;;;;;23.87;100.00;99824.97;5027214;28;20264;-71
2022/06/12 07:54:59;;;;;;;11.95;8.70;;;;;;;24.10;100.00;99840.72;5028442;28;20204;-68
2022/06/12 07:57:27;;;;;;;7.25;6.25;;;;;;;23.77;100.00;99834.25;5023646;28;20242;-69
2022/06/12 07:59:54;;;;;;;6.43;5.90;;;;;;;23.23;100.00;99817.06;5028672;28;20200;-70
2022/06/12 08:02:21;;;;;;;7.88;7.18;;;;;;;23.75;100.00;99822.88;5028334;28;20208;-69
2022/06/12 08:04:48;;;;;;;8.68;5.80;;;;;;;23.88;100.00;99823.19;5009000;28;20904;-69
2022/06/12 08:07:15;;;;;;;5.85;5.25;;;;;;;23.34;100.00;99815.75;5028625;28;20219;-68
2022/06/12 08:09:41;;;;;;;6.97;6.28;;;;;;;23.39;100.00;99827.88;5028361;28;20200;-68
2022/06/12 08:12:10;;;;;;;8.23;6.22;;;;;;;23.53;100.00;99822.03;5028212;28;20225;-69
2022/06/12 08:14:38;;;;;;;6.00;5.43;;;;;;;22.99;100.00;99794.25;5029292;28;20243;-70
2022/06/12 08:17:05;;;;;;;6.15;5.65;;;;;;;22.92;100.00;99815.72;5040999;28;20212;-70
2022/06/12 08:22:22;;;;;;;8.27;7.20;;;;;;;22.77;100.00;99801.31;4985704;28;20376;-71
2022/06/12 08:24:48;;;;;;;9.27;6.05;;;;;;;22.59;100.00;99791.41;4984878;28;20605;-70
2022/06/12 08:27:15;;;;;;;9.73;6.10;;;;;;;22.66;100.00;99806.13;4986164;28;20201;-69
2022/06/12 08:29:44;;;;;;;8.88;7.40;;;;;;;22.80;100.00;99801.19;4988471;28;20677;-70
2022/06/12 08:32:16;;;;;;;11.57;7.57;;;;;;;22.65;100.00;99786.75;4985906;28;20229;-70
2022/06/12 08:34:48;;;;;;;8.05;7.15;;;;;;;22.54;100.00;99799.53;4984843;28;20575;-73
2022/06/12 08:37:18;;;;;;;8.50;7.60;;;;;;;22.29;100.00;99774.97;4985926;28;20201;-70
2022/06/12 08:39:45;;;;;;;10.52;7.68;;;;;;;22.19;100.00;99782.34;4983243;28;20760;-69
2022/06/12 08:42:17;;;;;;;9.00;8.10;;;;;;;22.27;100.00;99790.00;4986119;28;20210;-70
2022/06/12 08:44:51;;;;;;;14.07;9.55;;;;;;;22.23;100.00;99789.25;4984683;28;20342;-70
2022/06/12 08:47:26;;;;;;;11.80;9.75;;;;;;;22.30;100.00;99778.44;4962643;28;20270;-70
2022/06/12 08:50:01;;;;;;;18.52;11.27;;;;;;;22.15;100.00;99735.84;4956572;28;20300;-70
2022/06/12 08:52:32;;;;;;;27.45;19.00;;;;;;;22.40;100.00;99780.69;4985629;28;20256;-71
2022/06/12 08:55:07;;;;;;;11.93;10.40;;;;;;;22.52;100.00;99784.63;4981648;28;20316;-71
2022/06/12 08:57:38;;;;;;;11.88;10.65;;;;;;;22.37;100.00;99785.22;4952857;28;20780;-69
2022/06/12 09:00:12;;;;;;;13.48;12.07;;;;;;;22.19;100.00;99771.78;5041685;28;20613;-70
2022/06/12 09:02:43;;;;;;;14.95;13.40;;;;;;;22.02;100.00;99747.78;5046602;28;20222;-70
2022/06/12 09:05:15;;;;;;;13.05;11.68;;;;;;;22.67;100.00;99789.38;5035975;28;20743;-69
2022/06/12 09:07:49;;;;;;;14.27;12.52;;;;;;;23.39;100.00;99795.25;5047745;28;20295;-70
2022/06/12 09:10:24;;;;;;;12.57;11.27;;;;;;;23.65;100.00;99792.41;5043295;28;20215;-70
2022/06/12 09:12:55;;;;;;;11.63;10.52;;;;;;;23.64;100.00;99790.69;5032898;28;20254;-69
2022/06/12 09:15:32;;;;;;;13.30;9.35;;;;;;;24.17;100.00;99826.31;5047039;28;20909;-70
2022/06/12 09:18:10;;;;;;;10.07;8.80;;;;;;;24.65;100.00;99836.47;5006250;28;20269;-70
2022/06/12 09:20:48;;;;;;;11.40;7.70;;;;;;;24.38;100.00;99827.13;5044016;28;20211;-71
2022/06/12 09:23:26;;;;;;;11.45;8.95;;;;;;;24.45;100.00;99825.06;5022194;28;20922;-70
2022/06/12 09:26:01;;;;;;;10.43;9.20;;;;;;;25.12;100.00;99830.72;5043646;28;20200;-71
2022/06/12 09:28:37;;;;;;;10.52;9.43;;;;;;;25.58;100.00;99824.91;5047323;28;20280;-70
2022/06/12 09:31:10;;;;;;;12.10;10.02;;;;;;;25.92;100.00;99847.97;5030085;28;20211;-69
2022/06/12 09:33:47;;;;;;;9.00;8.13;;;;;;;25.42;100.00;99834.53;5038290;28;20235;-68
2022/06/12 09:36:41;;;;;;;13.13;9.20;;;;;;;25.92;100.00;99839.13;5043349;28;20215;-70
2022/06/12 09:39:21;;;;;;;10.95;9.45;;;;;;;25.63;100.00;99837.94;5047199;28;20203;-68
2022/06/12 09:41:53;;;;;;;8.90;8.15;;;;;;;25.22;100.00;99809.94;5031335;28;20200;-68
2022/06/12 09:44:29;;;;;;;9.80;8.35;;;;;;;25.74;100.00;99830.31;5026694;28;20212;-69
2022/06/12 09:47:08;;;;;;;8.23;7.28;;;;;;;25.74;100.00;99840.94;5017612;28;20598;-69
2022/06/12 09:49:46;;;;;;;6.20;5.68;;;;;;;25.38;100.00;99843.59;5008359;28;20211;-69
2022/06/12 09:52:38;;;;;;;8.45;7.13;;;;;;;25.68;100.00;99825.31;5010179;28;20318;-68
2022/06/12 09:55:11;;;;;;;7.65;6.90;;;;;;;25.95;100.00;99829.19;5022134;28;20206;-69
2022/06/12 09:57:44;;;;;;;7.60;6.90;;;;;;;25.81;100.00;99825.53;5026357;28;20211;-69
2022/06/12 10:00:17;;;;;;;8.07;7.20;;;;;;;25.68;100.00;99822.66;5027006;28;20208;-70
2022/06/12 10:02:54;;;;;;;7.82;7.13;;;;;;;25.64;100.00;99813.13;5027237;28;20290;-70
2022/06/12 10:05:26;;;;;;;7.75;5.65;;;;;;;25.41;100.00;99822.19;5019590;28;20212;-70
2022/06/12 10:07:59;;;;;;;5.95;5.55;;;;;;;25.60;100.00;99807.09;5021330;28;20270;-71
2022/06/12 10:10:33;;;;;;;5.63;5.15;;;;;;;25.61;100.00;99823.91;5026628;28;20342;-73
2022/06/12 10:13:07;;;;;;;7.38;6.68;;;;;;;25.54;100.00;99811.88;5020949;28;20262;-72
2022/06/12 10:15:38;;;;;;;112.80;63.72;;;;;;;25.89;100.00;99815.38;5041551;28;20604;-70
2022/06/12 10:18:12;;;;;;;7.10;6.35;;;;;;;25.91;100.00;99818.78;5043516;28;20200;-69
2022/06/12 10:20:43;;;;;;;8.38;5.95;;;;;;;25.67;100.00;99775.78;5030014;28;20320;-70
2022/06/12 10:23:11;;;;;;;7.35;6.47;;;;;;;25.61;100.00;99803.50;5026909;28;20212;-70
2022/06/12 10:25:40;;;;;;;9.55;6.55;;;;;;;25.63;100.00;99791.00;5026287;28;20892;-70
2022/06/12 10:28:21;;;;;;;10.95;6.20;;;;;;;25.30;100.00;99757.31;5021348;28;20212;-70
2022/06/12 10:31:00;;;;;;;8.52;6.78;;;;;;;25.49;100.00;99787.31;5023360;28;20203;-70
2022/06/12 10:33:30;;;;;;;8.45;6.88;;;;;;;25.29;100.00;99750.28;5025205;28;20224;-70
2022/06/12 10:35:59;;;;;;;7.65;7.05;;;;;;;25.43;100.00;99771.69;5024603;28;20680;-70
2022/06/12 10:38:29;;;;;;;12.90;8.18;;;;;;;25.48;100.00;99751.06;5025812;28;20207;-70
2022/06/12 10:40:58;;;;;;;15.35;8.63;;;;;;;25.51;100.00;99786.31;5026112;28;20200;-70
2022/06/12 10:43:33;;;;;;;8.40;7.50;;;;;;;25.65;100.00;99780.28;5026252;28;20215;-69
2022/06/12 10:46:04;;;;;;;8.75;7.97;;;;;;;25.45;100.00;99720.22;5025345;28;20203;-70
2022/06/12 10:48:35;;;;;;;10.98;8.88;;;;;;;25.91;100.00;99776.28;5003335;28;20212;-70
2022/06/12 10:51:06;;;;;;;10.82;9.80;;;;;;;25.54;100.00;99762.25;5026290;28;20212;-69
2022/06/12 10:53:34;;;;;;;8.73;7.85;;;;;;;25.54;100.00;99766.72;5023818;28;20223;-71
2022/06/12 10:56:16;;;;;;;8.70;7.90;;;;;;;25.93;100.00;99767.31;5029189;28;20203;-69
2022/06/12 10:59:18;;;;;;;13.02;9.43;;;;;;;26.24;100.00;99769.22;5025775;28;20957;-70
2022/06/12 11:01:58;;;;;;;10.90;8.55;;;;;;;26.22;100.00;99751.63;4916968;29;20273;-69
2022/06/12 11:04:37;;;;;;;9.30;8.38;;;;;;;26.20;100.00;99738.41;4897436;28;20225;-68
2022/06/12 11:07:17;;;;;;;12.10;8.77;;;;;;;26.54;100.00;99756.06;4967062;28;20993;-69
2022/06/12 11:10:00;;;;;;;13.90;8.93;;;;;;;26.65;100.00;99761.59;4968152;28;20214;-71
2022/06/12 11:12:39;;;;;;;10.50;8.95;;;;;;;26.43;100.00;99761.94;4967248;28;20237;-71
2022/06/12 11:15:26;;;;;;;11.18;8.38;;;;;;;26.67;100.00;99759.72;4981124;28;20225;-72
2022/06/12 11:18:01;;;;;;;11.65;8.98;;;;;;;27.05;100.00;99752.25;4986847;28;20196;-72
2022/06/12 11:20:36;;;;;;;9.38;8.40;;;;;;;27.15;100.00;99723.31;4984162;28;20212;-72
2022/06/12 11:23:20;;;;;;;8.85;7.93;;;;;;;27.05;100.00;99739.81;4987673;28;20205;-72
2022/06/12 11:25:59;;;;;;;9.88;8.95;;;;;;;27.68;100.00;99733.47;4968238;28;20213;-73
2022/06/12 11:28:38;;;;;;;7.95;7.28;;;;;;;27.73;100.00;99748.19;4987837;28;20216;-73
2022/06/12 11:31:16;;;;;;;10.32;9.32;;;;;;;28.24;100.00;99748.63;4954788;28;20201;-73
2022/06/12 11:34:06;;;;;;;8.95;8.10;;;;;;;28.18;100.00;99675.22;4964041;28;20226;-72
2022/06/12 11:36:46;;;;;;;14.05;8.95;;;;;;;28.95;100.00;99757.38;4986050;28;20216;-74
2022/06/12 11:39:29;;;;;;;9.27;8.38;;;;;;;28.71;100.00;99738.50;5016097;28;20218;-75
2022/06/12 11:42:27;;;;;;;9.55;8.75;;;;;;;28.44;100.00;99750.91;5023972;28;20203;-71
2022/06/12 11:45:15;;;;;;;9.35;8.45;;;;;;;28.32;100.00;99751.69;5001206;28;20226;-71
2022/06/12 11:47:54;;;;;;;10.10;9.05;;;;;;;28.50;100.00;99750.53;5026452;28;20218;-71
2022/06/12 11:50:30;;;;;;;13.35;9.20;;;;;;;28.10;100.00;99745.97;5026775;28;20675;-72
2022/06/12 11:53:14;;;;;;;11.88;9.50;;;;;;;27.92;100.00;99732.81;5021664;28;20285;-71
2022/06/12 11:55:46;;;;;;;10.63;9.63;;;;;;;27.65;100.00;99715.00;4995765;28;20229;-70